Marine, Minnesota
Current Conditions -  °F | °C
As of 11:35 AM on Thursday 23 Oct 2014 (Local Time) from KRNH Reporting Station
Haze Haze  
Wind Chill: 52°   Ceiling: 400
Heat Index: 52°   Visibility: 2mi
Dew Point: 52°   Wind: 5mph
Humidity: 99%   Direction: 200°SSW
Pressure: 30.01"   Gusts: NA
Location:  45.1574°N, 92.7623°W
Report Text: KRNH 231635Z AUTO 20004KT 2SM BR OVC004 11/11 A3001 RMK AO2 T01130112
Loading
Personal Weather Stations






























Interactive Weather Map
Tropical Storm Tracking
New forecast layout! Learn more

10-Day Weather Forecast

Advertisements
Track Severe Weather on mobile